SWA1323 KSAN-KDEN
Flight info
| Callsign | SWA1323 |
|---|---|
| Flight time | N/A |
| Altitude | 37000 |
| Route | ZZOOO4 MTBAL EED J236 TBC CRUDD TBARR4 |
| Aircraft | B738/M-SDE2E3FGHIRWXY/LB1 |
Departure
| Time | 2026-05-08 06:22 |
|---|---|
| Airport | San Diego International Airport (KSAN) |
Arrival
| Time | N/A |
|---|---|
| Airport | Denver International Airport (KDEN) |
| Time | Latitude | Longitude | Altitude | Speed | Heading |
|---|---|---|---|---|---|
| 2026-05-08 05:55 | 32.73335 | -117.20183 | 23 ft | 0 kts | 86° |
| 2026-05-08 06:10 | 32.73335 | -117.20184 | 23 ft | 2 kts | 86° |
| 2026-05-08 06:11 | 32.73332 | -117.20213 | 28 ft | 3 kts | 77° |
| 2026-05-08 06:11 | 32.73325 | -117.20239 | 27 ft | 3 kts | 55° |
| 2026-05-08 06:11 | 32.73315 | -117.20250 | 25 ft | 2 kts | 15° |
| 2026-05-08 06:11 | 32.73302 | -117.20252 | 29 ft | 2 kts | 345° |
| 2026-05-08 06:12 | 32.73291 | -117.20247 | 26 ft | 2 kts | 331° |
| 2026-05-08 06:12 | 32.73282 | -117.20240 | 27 ft | 2 kts | 325° |
| 2026-05-08 06:12 | 32.73280 | -117.20239 | 27 ft | 0 kts | 324° |
| 2026-05-08 06:14 | 32.73290 | -117.20246 | 26 ft | 5 kts | 331° |
| 2026-05-08 06:14 | 32.73361 | -117.20276 | 23 ft | 15 kts | 346° |
| 2026-05-08 06:14 | 32.73467 | -117.20252 | 26 ft | 16 kts | 16° |
| 2026-05-08 06:15 | 32.73546 | -117.20189 | 25 ft | 14 kts | 88° |
| 2026-05-08 06:15 | 32.73521 | -117.20076 | 26 ft | 14 kts | 106° |
| 2026-05-08 06:15 | 32.73502 | -117.19996 | 29 ft | 16 kts | 106° |
| 2026-05-08 06:15 | 32.73456 | -117.19805 | 26 ft | 19 kts | 106° |
| 2026-05-08 06:16 | 32.73431 | -117.19704 | 28 ft | 19 kts | 106° |
| 2026-05-08 06:16 | 32.73395 | -117.19555 | 29 ft | 18 kts | 106° |
| 2026-05-08 06:16 | 32.73360 | -117.19411 | 28 ft | 18 kts | 106° |
| 2026-05-08 06:16 | 32.73326 | -117.19271 | 24 ft | 17 kts | 106° |
| 2026-05-08 06:17 | 32.73259 | -117.18993 | 27 ft | 20 kts | 106° |
| 2026-05-08 06:17 | 32.73218 | -117.18825 | 27 ft | 22 kts | 106° |
| 2026-05-08 06:17 | 32.73176 | -117.18654 | 31 ft | 21 kts | 106° |
| 2026-05-08 06:18 | 32.73137 | -117.18490 | 25 ft | 20 kts | 106° |
| 2026-05-08 06:18 | 32.73098 | -117.18329 | 27 ft | 20 kts | 106° |
| 2026-05-08 06:18 | 32.73060 | -117.18174 | 21 ft | 19 kts | 106° |
| 2026-05-08 06:18 | 32.73023 | -117.18024 | 21 ft | 19 kts | 106° |
| 2026-05-08 06:19 | 32.72988 | -117.17879 | 18 ft | 18 kts | 106° |
| 2026-05-08 06:19 | 32.72954 | -117.17740 | 19 ft | 15 kts | 106° |
| 2026-05-08 06:19 | 32.72951 | -117.17685 | 19 ft | 0 kts | 78° |
| 2026-05-08 06:20 | 32.72952 | -117.17679 | 19 ft | 4 kts | 74° |
| 2026-05-08 06:20 | 32.72970 | -117.17611 | 21 ft | 12 kts | 68° |
| 2026-05-08 06:20 | 32.73028 | -117.17621 | 21 ft | 12 kts | 289° |
| 2026-05-08 06:21 | 32.73034 | -117.17644 | 22 ft | 5 kts | 286° |
| 2026-05-08 06:21 | 32.73109 | -117.17955 | 18 ft | 77 kts | 285° |
| 2026-05-08 06:21 | 32.73320 | -117.18834 | 25 ft | 142 kts | 286° |
| 2026-05-08 06:21 | 32.73640 | -117.20141 | 275 ft | 175 kts | 286° |
| 2026-05-08 06:22 | 32.73976 | -117.21516 | 1227 ft | 170 kts | 285° |
| 2026-05-08 06:22 | 32.74308 | -117.22880 | 2024 ft | 177 kts | 285° |
| 2026-05-08 06:22 | 32.74679 | -117.24414 | 2394 ft | 209 kts | 286° |
| 2026-05-08 06:22 | 32.75106 | -117.26181 | 2651 ft | 234 kts | 286° |
| 2026-05-08 06:23 | 32.75560 | -117.28066 | 3275 ft | 240 kts | 287° |
| 2026-05-08 06:23 | 32.76019 | -117.29971 | 4071 ft | 239 kts | 287° |
| 2026-05-08 06:23 | 32.76447 | -117.31839 | 5031 ft | 236 kts | 281° |
| 2026-05-08 06:23 | 32.76350 | -117.33797 | 5868 ft | 245 kts | 255° |
| 2026-05-08 06:24 | 32.75503 | -117.35593 | 6632 ft | 256 kts | 230° |
| 2026-05-08 06:24 | 32.74037 | -117.36840 | 7360 ft | 266 kts | 203° |
| 2026-05-08 06:24 | 32.72196 | -117.37154 | 8116 ft | 272 kts | 172° |
| 2026-05-08 06:24 | 32.70444 | -117.36360 | 8923 ft | 272 kts | 141° |
| 2026-05-08 06:25 | 32.69166 | -117.34745 | 9817 ft | 268 kts | 124° |
| 2026-05-08 06:25 | 32.68097 | -117.32936 | 10621 ft | 269 kts | 122° |
| 2026-05-08 06:25 | 32.67029 | -117.31097 | 11351 ft | 272 kts | 123° |
| 2026-05-08 06:25 | 32.65940 | -117.29252 | 12102 ft | 274 kts | 123° |
| 2026-05-08 06:26 | 32.64832 | -117.27397 | 12869 ft | 276 kts | 123° |
| 2026-05-08 06:26 | 32.63717 | -117.25529 | 13635 ft | 278 kts | 121° |
| 2026-05-08 06:26 | 32.63000 | -117.23407 | 14204 ft | 284 kts | 99° |
| 2026-05-08 06:26 | 32.62747 | -117.20992 | 14381 ft | 307 kts | 94° |
| 2026-05-08 06:27 | 32.62547 | -117.18375 | 14539 ft | 330 kts | 94° |
| 2026-05-08 06:27 | 32.62320 | -117.15578 | 14715 ft | 351 kts | 95° |
| 2026-05-08 06:27 | 32.62063 | -117.12619 | 14848 ft | 371 kts | 94° |
| 2026-05-08 06:27 | 32.62175 | -117.09512 | 15026 ft | 385 kts | 76° |
| 2026-05-08 06:28 | 32.63060 | -117.06498 | 15495 ft | 389 kts | 67° |
| 2026-05-08 06:28 | 32.64078 | -117.03551 | 16034 ft | 393 kts | 67° |
| 2026-05-08 06:28 | 32.65101 | -117.00532 | 16575 ft | 396 kts | 68° |
| 2026-05-08 06:28 | 32.66112 | -116.97471 | 17116 ft | 400 kts | 68° |
| 2026-05-08 06:29 | 32.66781 | -116.94248 | 17598 ft | 407 kts | 85° |
| 2026-05-08 06:29 | 32.66821 | -116.90865 | 18161 ft | 411 kts | 88° |
| 2026-05-08 06:29 | 32.66843 | -116.87458 | 18636 ft | 414 kts | 88° |
| 2026-05-08 06:29 | 32.66904 | -116.84027 | 19103 ft | 417 kts | 87° |
| 2026-05-08 06:30 | 32.67099 | -116.80590 | 19565 ft | 417 kts | 77° |
| 2026-05-08 06:30 | 32.68106 | -116.77386 | 20028 ft | 416 kts | 58° |
| 2026-05-08 06:30 | 32.69897 | -116.74701 | 20531 ft | 415 kts | 42° |
| 2026-05-08 06:30 | 32.72238 | -116.72705 | 20989 ft | 416 kts | 26° |
| 2026-05-08 06:31 | 32.74899 | -116.71330 | 21465 ft | 418 kts | 22° |
| 2026-05-08 06:31 | 32.77616 | -116.70046 | 21896 ft | 422 kts | 21° |
| 2026-05-08 06:31 | 32.80354 | -116.68769 | 22326 ft | 425 kts | 21° |
| 2026-05-08 06:31 | 32.83111 | -116.67467 | 22748 ft | 427 kts | 21° |
| 2026-05-08 06:32 | 32.85878 | -116.66138 | 23186 ft | 430 kts | 22° |
| 2026-05-08 06:32 | 32.88617 | -116.64804 | 23601 ft | 432 kts | 22° |
| 2026-05-08 06:32 | 32.91407 | -116.63436 | 23946 ft | 434 kts | 22° |
| 2026-05-08 06:32 | 32.94199 | -116.62062 | 24289 ft | 436 kts | 22° |
| 2026-05-08 06:33 | 32.97019 | -116.60675 | 24631 ft | 438 kts | 22° |
| 2026-05-08 06:33 | 32.99843 | -116.59287 | 24969 ft | 440 kts | 22° |
| 2026-05-08 06:33 | 33.02680 | -116.57874 | 25299 ft | 443 kts | 23° |
| 2026-05-08 06:33 | 33.05510 | -116.56411 | 25616 ft | 445 kts | 23° |
| 2026-05-08 06:34 | 33.08354 | -116.54915 | 25931 ft | 447 kts | 24° |
| 2026-05-08 06:34 | 33.11205 | -116.53410 | 26226 ft | 449 kts | 24° |
| 2026-05-08 06:34 | 33.14073 | -116.51898 | 26523 ft | 451 kts | 24° |
| 2026-05-08 06:34 | 33.16948 | -116.50386 | 26836 ft | 452 kts | 24° |
| 2026-05-08 06:35 | 33.19832 | -116.48873 | 27130 ft | 454 kts | 24° |
| 2026-05-08 06:35 | 33.22734 | -116.47351 | 27411 ft | 456 kts | 24° |
| 2026-05-08 06:35 | 33.25590 | -116.45853 | 27667 ft | 458 kts | 24° |
| 2026-05-08 06:35 | 33.28532 | -116.44309 | 27952 ft | 460 kts | 24° |
| 2026-05-08 06:36 | 33.31464 | -116.42770 | 28247 ft | 461 kts | 24° |
| 2026-05-08 06:36 | 33.34403 | -116.41224 | 28619 ft | 460 kts | 24° |
| 2026-05-08 06:36 | 33.37331 | -116.39677 | 29056 ft | 458 kts | 25° |
| 2026-05-08 06:36 | 33.40024 | -116.37673 | 29434 ft | 457 kts | 40° |
| 2026-05-08 06:37 | 33.42188 | -116.34882 | 29783 ft | 458 kts | 52° |
| 2026-05-08 06:37 | 33.44043 | -116.31779 | 30126 ft | 458 kts | 54° |
| 2026-05-08 06:37 | 33.45860 | -116.28642 | 30423 ft | 458 kts | 54° |
| 2026-05-08 06:37 | 33.47676 | -116.25508 | 30780 ft | 457 kts | 54° |
| 2026-05-08 06:38 | 33.49476 | -116.22436 | 31158 ft | 455 kts | 53° |
| 2026-05-08 06:38 | 33.51304 | -116.19353 | 31522 ft | 453 kts | 53° |
| 2026-05-08 06:38 | 33.53136 | -116.16282 | 31849 ft | 452 kts | 53° |
| 2026-05-08 06:38 | 33.54967 | -116.13221 | 32184 ft | 451 kts | 53° |
| 2026-05-08 06:39 | 33.56792 | -116.10170 | 32538 ft | 450 kts | 53° |
| 2026-05-08 06:39 | 33.58614 | -116.07117 | 32891 ft | 448 kts | 53° |
| 2026-05-08 06:39 | 33.60431 | -116.04082 | 33250 ft | 447 kts | 52° |
| 2026-05-08 06:39 | 33.62378 | -116.01189 | 33567 ft | 445 kts | 47° |
| 2026-05-08 06:40 | 33.64449 | -115.98423 | 33872 ft | 444 kts | 46° |
| 2026-05-08 06:40 | 33.66557 | -115.95722 | 34160 ft | 443 kts | 45° |
| 2026-05-08 06:40 | 33.68667 | -115.93039 | 34423 ft | 442 kts | 45° |
| 2026-05-08 06:40 | 33.70775 | -115.90336 | 34627 ft | 443 kts | 46° |
| 2026-05-08 06:41 | 33.72863 | -115.87627 | 34872 ft | 442 kts | 46° |
| 2026-05-08 06:41 | 33.74916 | -115.84938 | 35135 ft | 441 kts | 46° |
| 2026-05-08 06:41 | 33.76982 | -115.82211 | 35408 ft | 440 kts | 46° |
| 2026-05-08 06:41 | 33.79038 | -115.79484 | 35655 ft | 440 kts | 46° |
| 2026-05-08 06:42 | 33.81093 | -115.76753 | 35890 ft | 440 kts | 46° |
| 2026-05-08 06:42 | 33.83140 | -115.74028 | 36127 ft | 439 kts | 46° |
| 2026-05-08 06:42 | 33.85188 | -115.71300 | 36391 ft | 438 kts | 46° |
| 2026-05-08 06:42 | 33.87231 | -115.68576 | 36643 ft | 437 kts | 46° |
| 2026-05-08 06:43 | 33.89267 | -115.65861 | 36857 ft | 437 kts | 47° |
| 2026-05-08 06:43 | 33.91308 | -115.63138 | 36887 ft | 440 kts | 47° |
| 2026-05-08 06:43 | 33.95407 | -115.57663 | 36897 ft | 438 kts | 47° |
| 2026-05-08 06:44 | 33.99473 | -115.52223 | 36887 ft | 434 kts | 47° |
| 2026-05-08 06:44 | 34.03473 | -115.46863 | 36887 ft | 431 kts | 47° |
| 2026-05-08 06:45 | 34.07473 | -115.41496 | 36886 ft | 429 kts | 47° |
| 2026-05-08 06:45 | 34.11465 | -115.36133 | 36874 ft | 429 kts | 47° |
| 2026-05-08 06:46 | 34.15467 | -115.30747 | 36868 ft | 431 kts | 47° |
| 2026-05-08 06:46 | 34.19475 | -115.25344 | 36864 ft | 433 kts | 47° |
| 2026-05-08 06:47 | 34.23511 | -115.19896 | 36867 ft | 436 kts | 47° |
| 2026-05-08 06:47 | 34.27541 | -115.14447 | 36857 ft | 439 kts | 47° |
| 2026-05-08 06:48 | 34.31625 | -115.08915 | 36849 ft | 441 kts | 47° |
| 2026-05-08 06:48 | 34.35705 | -115.03380 | 36847 ft | 440 kts | 47° |
| 2026-05-08 06:49 | 34.39776 | -114.97849 | 36848 ft | 440 kts | 47° |
| 2026-05-08 06:49 | 34.43841 | -114.92318 | 36839 ft | 439 kts | 47° |
| 2026-05-08 06:50 | 34.47905 | -114.86779 | 36840 ft | 439 kts | 47° |
| 2026-05-08 06:50 | 34.51940 | -114.81270 | 36841 ft | 440 kts | 46° |
| 2026-05-08 06:51 | 34.55998 | -114.75723 | 36852 ft | 439 kts | 46° |
| 2026-05-08 06:51 | 34.60052 | -114.70170 | 36859 ft | 440 kts | 46° |
| 2026-05-08 06:52 | 34.64105 | -114.64610 | 36873 ft | 439 kts | 46° |
| 2026-05-08 06:52 | 34.68157 | -114.59043 | 36887 ft | 439 kts | 46° |
| 2026-05-08 06:53 | 34.72206 | -114.53471 | 36884 ft | 440 kts | 46° |
| 2026-05-08 06:53 | 34.76216 | -114.47854 | 36867 ft | 440 kts | 51° |
| 2026-05-08 06:54 | 34.79360 | -114.41462 | 36864 ft | 441 kts | 59° |
| 2026-05-08 06:54 | 34.82218 | -114.34864 | 36839 ft | 440 kts | 60° |
| 2026-05-08 06:55 | 34.85077 | -114.28280 | 36834 ft | 439 kts | 59° |
| 2026-05-08 06:55 | 34.87945 | -114.21733 | 36839 ft | 438 kts | 59° |
| 2026-05-08 06:56 | 34.90805 | -114.15226 | 36830 ft | 438 kts | 59° |
| 2026-05-08 06:56 | 34.93678 | -114.08681 | 36856 ft | 437 kts | 59° |
| 2026-05-08 06:57 | 34.96540 | -114.02149 | 36898 ft | 437 kts | 59° |
| 2026-05-08 06:57 | 34.99402 | -113.95604 | 36923 ft | 437 kts | 59° |
| 2026-05-08 06:58 | 35.02262 | -113.89048 | 36943 ft | 437 kts | 59° |
| 2026-05-08 06:58 | 35.05098 | -113.82536 | 36952 ft | 438 kts | 59° |
| 2026-05-08 06:59 | 35.07960 | -113.75951 | 36962 ft | 438 kts | 59° |
| 2026-05-08 06:59 | 35.10814 | -113.69372 | 36951 ft | 439 kts | 59° |
| 2026-05-08 07:00 | 35.13673 | -113.62768 | 36936 ft | 439 kts | 59° |
| 2026-05-08 07:00 | 35.16527 | -113.56163 | 36922 ft | 440 kts | 59° |
| 2026-05-08 07:01 | 35.19384 | -113.49538 | 36908 ft | 441 kts | 59° |
| 2026-05-08 07:01 | 35.22245 | -113.42892 | 36918 ft | 441 kts | 59° |
| 2026-05-08 07:02 | 35.25083 | -113.36283 | 36913 ft | 442 kts | 59° |
| 2026-05-08 07:02 | 35.27942 | -113.29613 | 36930 ft | 442 kts | 59° |
| 2026-05-08 07:03 | 35.30794 | -113.22948 | 36932 ft | 442 kts | 59° |
| 2026-05-08 07:03 | 35.33643 | -113.16275 | 36939 ft | 442 kts | 59° |
| 2026-05-08 07:04 | 35.36484 | -113.09609 | 36949 ft | 440 kts | 59° |
| 2026-05-08 07:04 | 35.39294 | -113.03001 | 36954 ft | 439 kts | 59° |
| 2026-05-08 07:05 | 35.42113 | -112.96360 | 36955 ft | 438 kts | 59° |
| 2026-05-08 07:05 | 35.44924 | -112.89725 | 36975 ft | 438 kts | 59° |
| 2026-05-08 07:06 | 35.47255 | -112.84213 | 36972 ft | 438 kts | 59° |
| 2026-05-08 07:06 | 35.50057 | -112.77573 | 36984 ft | 438 kts | 59° |
| 2026-05-08 07:07 | 35.52862 | -112.70916 | 36985 ft | 439 kts | 59° |
| 2026-05-08 07:07 | 35.55651 | -112.64283 | 36997 ft | 439 kts | 59° |
| 2026-05-08 07:08 | 35.58454 | -112.57602 | 37000 ft | 441 kts | 59° |
| 2026-05-08 07:08 | 35.61262 | -112.50894 | 37012 ft | 442 kts | 59° |
| 2026-05-08 07:09 | 35.64066 | -112.44182 | 37013 ft | 441 kts | 59° |
| 2026-05-08 07:09 | 35.66861 | -112.37479 | 37024 ft | 440 kts | 59° |
| 2026-05-08 07:10 | 35.69647 | -112.30785 | 37032 ft | 439 kts | 59° |
| 2026-05-08 07:10 | 35.72427 | -112.24092 | 37034 ft | 439 kts | 59° |
| 2026-05-08 07:11 | 35.75199 | -112.17402 | 37027 ft | 438 kts | 59° |
| 2026-05-08 07:11 | 35.77966 | -112.10714 | 37032 ft | 438 kts | 59° |
| 2026-05-08 07:12 | 35.80714 | -112.04057 | 37027 ft | 439 kts | 59° |
| 2026-05-08 07:12 | 35.83477 | -111.97351 | 37030 ft | 439 kts | 59° |
| 2026-05-08 07:13 | 35.86240 | -111.90631 | 37030 ft | 439 kts | 59° |
| 2026-05-08 07:13 | 35.88999 | -111.83905 | 37026 ft | 440 kts | 59° |
| 2026-05-08 07:14 | 35.91758 | -111.77167 | 37023 ft | 441 kts | 59° |
| 2026-05-08 07:14 | 35.94525 | -111.70393 | 37003 ft | 441 kts | 59° |
| 2026-05-08 07:15 | 35.97285 | -111.63626 | 36986 ft | 441 kts | 59° |
| 2026-05-08 07:15 | 36.00021 | -111.56898 | 36979 ft | 441 kts | 59° |
| 2026-05-08 07:16 | 36.02770 | -111.50128 | 36969 ft | 441 kts | 59° |
| 2026-05-08 07:16 | 36.05514 | -111.43356 | 36964 ft | 440 kts | 59° |
| 2026-05-08 07:17 | 36.08251 | -111.36587 | 36961 ft | 440 kts | 59° |
| 2026-05-08 07:17 | 36.10982 | -111.29819 | 36957 ft | 439 kts | 59° |
| 2026-05-08 07:18 | 36.13775 | -111.23095 | 36945 ft | 437 kts | 57° |
| 2026-05-08 07:18 | 36.16747 | -111.16606 | 36947 ft | 436 kts | 56° |
| 2026-05-08 07:19 | 36.19764 | -111.10087 | 36945 ft | 436 kts | 56° |
| 2026-05-08 07:19 | 36.22748 | -111.03557 | 36943 ft | 435 kts | 56° |
| 2026-05-08 07:20 | 36.25712 | -110.97009 | 36936 ft | 435 kts | 56° |
| 2026-05-08 07:20 | 36.28666 | -110.90455 | 36940 ft | 435 kts | 56° |
| 2026-05-08 07:21 | 36.31616 | -110.83895 | 36946 ft | 435 kts | 56° |
| 2026-05-08 07:21 | 36.34565 | -110.77325 | 36935 ft | 436 kts | 56° |
| 2026-05-08 07:22 | 36.37511 | -110.70751 | 36950 ft | 436 kts | 56° |
| 2026-05-08 07:22 | 36.40453 | -110.64170 | 36939 ft | 436 kts | 56° |
| 2026-05-08 07:23 | 36.43381 | -110.57610 | 36944 ft | 437 kts | 56° |
| 2026-05-08 07:23 | 36.46324 | -110.51004 | 36946 ft | 437 kts | 56° |
| 2026-05-08 07:24 | 36.49265 | -110.44386 | 36945 ft | 438 kts | 56° |
| 2026-05-08 07:24 | 36.52212 | -110.37745 | 36950 ft | 438 kts | 56° |
| 2026-05-08 07:25 | 36.55160 | -110.31086 | 36945 ft | 440 kts | 56° |
| 2026-05-08 07:26 | 36.59566 | -110.21110 | 36953 ft | 441 kts | 56° |
| 2026-05-08 07:26 | 36.62522 | -110.14399 | 36942 ft | 442 kts | 56° |
| 2026-05-08 07:27 | 36.65481 | -110.07668 | 36947 ft | 443 kts | 56° |
| 2026-05-08 07:27 | 36.68442 | -110.00918 | 36945 ft | 444 kts | 56° |
| 2026-05-08 07:28 | 36.71398 | -109.94166 | 36956 ft | 444 kts | 56° |
| 2026-05-08 07:28 | 36.74360 | -109.87385 | 36960 ft | 445 kts | 56° |
| 2026-05-08 07:29 | 36.77319 | -109.80599 | 36964 ft | 445 kts | 56° |
| 2026-05-08 07:29 | 36.80276 | -109.73802 | 36959 ft | 445 kts | 56° |
| 2026-05-08 07:30 | 36.83214 | -109.67036 | 36958 ft | 446 kts | 56° |
| 2026-05-08 07:30 | 36.86164 | -109.60226 | 36977 ft | 446 kts | 56° |
| 2026-05-08 07:31 | 36.89118 | -109.53394 | 36964 ft | 447 kts | 56° |
| 2026-05-08 07:31 | 36.92070 | -109.46553 | 36984 ft | 447 kts | 56° |
| 2026-05-08 07:32 | 36.95018 | -109.39708 | 36974 ft | 447 kts | 56° |
| 2026-05-08 07:32 | 36.97963 | -109.32852 | 36971 ft | 448 kts | 56° |
| 2026-05-08 07:33 | 37.00890 | -109.26025 | 36980 ft | 448 kts | 56° |
| 2026-05-08 07:33 | 37.03831 | -109.19150 | 36982 ft | 448 kts | 56° |
| 2026-05-08 07:34 | 37.06772 | -109.12262 | 36976 ft | 448 kts | 56° |
| 2026-05-08 07:34 | 37.09703 | -109.05382 | 36987 ft | 448 kts | 56° |
| 2026-05-08 07:35 | 37.12630 | -108.98497 | 37000 ft | 448 kts | 56° |
| 2026-05-08 07:35 | 37.15556 | -108.91599 | 37042 ft | 448 kts | 56° |
| 2026-05-08 07:36 | 37.18455 | -108.84751 | 37079 ft | 447 kts | 56° |
| 2026-05-08 07:36 | 37.21372 | -108.77847 | 37104 ft | 448 kts | 56° |
| 2026-05-08 07:37 | 37.24278 | -108.70950 | 37152 ft | 447 kts | 56° |
| 2026-05-08 07:37 | 37.27181 | -108.64048 | 37152 ft | 447 kts | 56° |
| 2026-05-08 07:38 | 37.30081 | -108.57139 | 37154 ft | 448 kts | 56° |
| 2026-05-08 07:38 | 37.32986 | -108.50204 | 37142 ft | 448 kts | 56° |
| 2026-05-08 07:39 | 37.35891 | -108.43250 | 37116 ft | 449 kts | 56° |
| 2026-05-08 07:39 | 37.38774 | -108.36337 | 37082 ft | 449 kts | 56° |
| 2026-05-08 07:40 | 37.41673 | -108.29368 | 37062 ft | 450 kts | 57° |
| 2026-05-08 07:40 | 37.44573 | -108.22383 | 37037 ft | 450 kts | 57° |
| 2026-05-08 07:41 | 37.47469 | -108.15392 | 37048 ft | 451 kts | 57° |
| 2026-05-08 07:41 | 37.50370 | -108.08374 | 37051 ft | 452 kts | 57° |
| 2026-05-08 07:42 | 37.53271 | -108.01340 | 37050 ft | 453 kts | 57° |
| 2026-05-08 07:42 | 37.56180 | -107.94271 | 37051 ft | 454 kts | 57° |
| 2026-05-08 07:43 | 37.59071 | -107.87229 | 37062 ft | 455 kts | 57° |
| 2026-05-08 07:43 | 37.61980 | -107.80127 | 37064 ft | 455 kts | 57° |
| 2026-05-08 07:44 | 37.64890 | -107.73008 | 37087 ft | 457 kts | 57° |
| 2026-05-08 07:44 | 37.67795 | -107.65882 | 37101 ft | 457 kts | 57° |
| 2026-05-08 07:45 | 37.70705 | -107.58730 | 37090 ft | 458 kts | 57° |
| 2026-05-08 07:45 | 37.73614 | -107.51568 | 37086 ft | 458 kts | 58° |
| 2026-05-08 07:46 | 37.77253 | -107.45189 | 37107 ft | 442 kts | 38° |
| 2026-05-08 07:46 | 37.81795 | -107.39959 | 37083 ft | 441 kts | 37° |
| 2026-05-08 07:47 | 37.86335 | -107.34736 | 37092 ft | 441 kts | 38° |
| 2026-05-08 07:47 | 37.90810 | -107.29485 | 37096 ft | 442 kts | 38° |
| 2026-05-08 07:48 | 37.95311 | -107.24155 | 37084 ft | 443 kts | 38° |
| 2026-05-08 07:48 | 37.99811 | -107.18810 | 37077 ft | 443 kts | 38° |
| 2026-05-08 07:49 | 38.04317 | -107.13453 | 37072 ft | 444 kts | 38° |
| 2026-05-08 07:49 | 38.08831 | -107.08078 | 37061 ft | 445 kts | 38° |
| 2026-05-08 07:50 | 38.13340 | -107.02700 | 37062 ft | 445 kts | 38° |
| 2026-05-08 07:50 | 38.17621 | -106.97055 | 37065 ft | 449 kts | 45° |
| 2026-05-08 07:51 | 38.21586 | -106.90887 | 37087 ft | 451 kts | 46° |
| 2026-05-08 07:51 | 38.25537 | -106.84689 | 37096 ft | 451 kts | 46° |
| 2026-05-08 07:52 | 38.29539 | -106.78529 | 37102 ft | 451 kts | 45° |
| 2026-05-08 07:52 | 38.33562 | -106.72388 | 37123 ft | 451 kts | 45° |
| 2026-05-08 07:53 | 38.36909 | -106.67281 | 37107 ft | 451 kts | 45° |
| 2026-05-08 07:53 | 38.41581 | -106.60132 | 37102 ft | 451 kts | 45° |
| 2026-05-08 07:54 | 38.44946 | -106.54971 | 37074 ft | 450 kts | 45° |
| 2026-05-08 07:54 | 38.48911 | -106.48876 | 37067 ft | 449 kts | 46° |
| 2026-05-08 07:54 | 38.50921 | -106.45785 | 36572 ft | 454 kts | 45° |
| 2026-05-08 07:55 | 38.52932 | -106.42687 | 36017 ft | 451 kts | 45° |
| 2026-05-08 07:55 | 38.54934 | -106.39598 | 35393 ft | 450 kts | 45° |
| 2026-05-08 07:55 | 38.56931 | -106.36515 | 34748 ft | 450 kts | 45° |
| 2026-05-08 07:55 | 38.58930 | -106.33427 | 34057 ft | 450 kts | 45° |
| 2026-05-08 07:56 | 38.60923 | -106.30345 | 33348 ft | 449 kts | 45° |
| 2026-05-08 07:56 | 38.62876 | -106.27316 | 33250 ft | 435 kts | 44° |
| 2026-05-08 07:56 | 38.64777 | -106.24367 | 33026 ft | 424 kts | 44° |
| 2026-05-08 07:56 | 38.66642 | -106.21487 | 32782 ft | 415 kts | 44° |
| 2026-05-08 07:57 | 38.68493 | -106.18659 | 32528 ft | 418 kts | 44° |
| 2026-05-08 07:57 | 38.70396 | -106.15772 | 32096 ft | 430 kts | 44° |
| 2026-05-08 07:57 | 38.72323 | -106.12840 | 31607 ft | 428 kts | 44° |
| 2026-05-08 07:57 | 38.74223 | -106.09933 | 31131 ft | 423 kts | 44° |
| 2026-05-08 07:58 | 38.76103 | -106.07049 | 30653 ft | 420 kts | 44° |
| 2026-05-08 07:58 | 38.77965 | -106.04190 | 30169 ft | 416 kts | 44° |
| 2026-05-08 07:58 | 38.79816 | -106.01347 | 29618 ft | 413 kts | 43° |
| 2026-05-08 07:58 | 38.81649 | -105.98531 | 29094 ft | 409 kts | 43° |
| 2026-05-08 07:59 | 38.83435 | -105.95783 | 28589 ft | 405 kts | 43° |
| 2026-05-08 07:59 | 38.85233 | -105.93018 | 28067 ft | 402 kts | 43° |
| 2026-05-08 07:59 | 38.87015 | -105.90273 | 27584 ft | 398 kts | 43° |
| 2026-05-08 07:59 | 38.88777 | -105.87556 | 27069 ft | 395 kts | 43° |
| 2026-05-08 08:00 | 38.90530 | -105.84838 | 26453 ft | 396 kts | 43° |
| 2026-05-08 08:00 | 38.92278 | -105.82115 | 25956 ft | 393 kts | 43° |
| 2026-05-08 08:00 | 38.94014 | -105.79404 | 25451 ft | 392 kts | 43° |
| 2026-05-08 08:00 | 38.95741 | -105.76707 | 24951 ft | 390 kts | 44° |
| 2026-05-08 08:01 | 38.97465 | -105.74014 | 24448 ft | 390 kts | 44° |
| 2026-05-08 08:01 | 38.99183 | -105.71332 | 23944 ft | 389 kts | 44° |
| 2026-05-08 08:01 | 39.00906 | -105.68638 | 23457 ft | 388 kts | 44° |
| 2026-05-08 08:01 | 39.02623 | -105.65956 | 22873 ft | 388 kts | 44° |
| 2026-05-08 08:02 | 39.04320 | -105.63319 | 22345 ft | 387 kts | 44° |
| 2026-05-08 08:02 | 39.06032 | -105.60660 | 21862 ft | 384 kts | 44° |
| 2026-05-08 08:02 | 39.07757 | -105.57981 | 21389 ft | 382 kts | 44° |
| 2026-05-08 08:02 | 39.09423 | -105.55389 | 20917 ft | 379 kts | 44° |
| 2026-05-08 08:03 | 39.11102 | -105.52774 | 20496 ft | 377 kts | 45° |
| 2026-05-08 08:03 | 39.12764 | -105.50183 | 20129 ft | 372 kts | 45° |
| 2026-05-08 08:03 | 39.14388 | -105.47644 | 19983 ft | 362 kts | 45° |
| 2026-05-08 08:03 | 39.15975 | -105.45153 | 19634 ft | 359 kts | 45° |
| 2026-05-08 08:04 | 39.17552 | -105.42654 | 19230 ft | 359 kts | 46° |
| 2026-05-08 08:04 | 39.19124 | -105.40156 | 18833 ft | 357 kts | 46° |
| 2026-05-08 08:04 | 39.20686 | -105.37669 | 18444 ft | 356 kts | 46° |
| 2026-05-08 08:04 | 39.22238 | -105.35200 | 17999 ft | 353 kts | 46° |
| 2026-05-08 08:05 | 39.23781 | -105.32741 | 17542 ft | 352 kts | 46° |
| 2026-05-08 08:05 | 39.25311 | -105.30303 | 17319 ft | 344 kts | 46° |
| 2026-05-08 08:05 | 39.26797 | -105.27930 | 17109 ft | 336 kts | 46° |
| 2026-05-08 08:05 | 39.28162 | -105.25521 | 16949 ft | 332 kts | 57° |
| 2026-05-08 08:06 | 39.28872 | -105.22669 | 16619 ft | 337 kts | 76° |
| 2026-05-08 08:06 | 39.29232 | -105.19687 | 16302 ft | 335 kts | 78° |
| 2026-05-08 08:06 | 39.29552 | -105.16707 | 15966 ft | 335 kts | 78° |
| 2026-05-08 08:06 | 39.29868 | -105.13778 | 15626 ft | 334 kts | 78° |
| 2026-05-08 08:07 | 39.30199 | -105.10815 | 15308 ft | 333 kts | 78° |
| 2026-05-08 08:07 | 39.30538 | -105.07868 | 14977 ft | 332 kts | 77° |
| 2026-05-08 08:07 | 39.30881 | -105.04937 | 14713 ft | 327 kts | 77° |
| 2026-05-08 08:07 | 39.31216 | -105.02062 | 14601 ft | 319 kts | 77° |
| 2026-05-08 08:08 | 39.31575 | -104.99268 | 14450 ft | 310 kts | 73° |
| 2026-05-08 08:08 | 39.32063 | -104.96601 | 14334 ft | 301 kts | 71° |
| 2026-05-08 08:08 | 39.32570 | -104.94014 | 14213 ft | 294 kts | 71° |
| 2026-05-08 08:08 | 39.33058 | -104.91476 | 14093 ft | 288 kts | 71° |
| 2026-05-08 08:09 | 39.33525 | -104.88994 | 13971 ft | 281 kts | 71° |
| 2026-05-08 08:09 | 39.34021 | -104.86581 | 13761 ft | 276 kts | 67° |
| 2026-05-08 08:09 | 39.34617 | -104.84236 | 13511 ft | 274 kts | 66° |
| 2026-05-08 08:09 | 39.35223 | -104.81903 | 13242 ft | 273 kts | 66° |
| 2026-05-08 08:10 | 39.35820 | -104.79577 | 12995 ft | 272 kts | 67° |
| 2026-05-08 08:10 | 39.36416 | -104.77256 | 12675 ft | 273 kts | 67° |
| 2026-05-08 08:10 | 39.37010 | -104.74948 | 12356 ft | 275 kts | 67° |
| 2026-05-08 08:10 | 39.37862 | -104.72777 | 11992 ft | 268 kts | 43° |
| 2026-05-08 08:11 | 39.39290 | -104.71322 | 11713 ft | 259 kts | 23° |
| 2026-05-08 08:11 | 39.40899 | -104.70285 | 11416 ft | 259 kts | 21° |
| 2026-05-08 08:11 | 39.42550 | -104.69348 | 11094 ft | 256 kts | 10° |
| 2026-05-08 08:11 | 39.44274 | -104.69155 | 10797 ft | 245 kts | 356° |
| 2026-05-08 08:12 | 39.45964 | -104.69154 | 10499 ft | 241 kts | 356° |
| 2026-05-08 08:12 | 39.47630 | -104.69145 | 10210 ft | 237 kts | 356° |
| 2026-05-08 08:12 | 39.49283 | -104.69135 | 10048 ft | 239 kts | 356° |
| 2026-05-08 08:12 | 39.50966 | -104.69123 | 10035 ft | 243 kts | 357° |
| 2026-05-08 08:13 | 39.52645 | -104.69106 | 10000 ft | 245 kts | 357° |
| 2026-05-08 08:13 | 39.54337 | -104.69087 | 9995 ft | 241 kts | 357° |
| 2026-05-08 08:13 | 39.56009 | -104.69068 | 9990 ft | 239 kts | 357° |
| 2026-05-08 08:13 | 39.57667 | -104.69049 | 9998 ft | 239 kts | 357° |
| 2026-05-08 08:14 | 39.59343 | -104.69031 | 9932 ft | 243 kts | 357° |
| 2026-05-08 08:14 | 39.61058 | -104.69012 | 9689 ft | 248 kts | 357° |
| 2026-05-08 08:14 | 39.62776 | -104.68992 | 9479 ft | 246 kts | 357° |
| 2026-05-08 08:14 | 39.64473 | -104.68972 | 9260 ft | 243 kts | 357° |
| 2026-05-08 08:15 | 39.66160 | -104.68952 | 9043 ft | 240 kts | 357° |
| 2026-05-08 08:15 | 39.67831 | -104.68933 | 8758 ft | 241 kts | 358° |
| 2026-05-08 08:15 | 39.69507 | -104.68914 | 8481 ft | 241 kts | 358° |
| 2026-05-08 08:15 | 39.71190 | -104.68896 | 8197 ft | 242 kts | 358° |
| 2026-05-08 08:16 | 39.72872 | -104.68878 | 7903 ft | 242 kts | 358° |
| 2026-05-08 08:16 | 39.74535 | -104.68857 | 7712 ft | 231 kts | 359° |
| 2026-05-08 08:16 | 39.76089 | -104.68838 | 7459 ft | 218 kts | 359° |
| 2026-05-08 08:16 | 39.77563 | -104.68821 | 7201 ft | 206 kts | 359° |
| 2026-05-08 08:17 | 39.78488 | -104.68811 | 7041 ft | 197 kts | 359° |
| 2026-05-08 08:17 | 39.78920 | -104.68806 | 6957 ft | 193 kts | 359° |